createdAt,value
2018-03-08T00:07:22.628Z,60.1
2018-03-08T00:17:21.811Z,59.9
2018-03-08T00:27:21.015Z,59.9
2018-03-08T00:37:20.221Z,59.4
2018-03-08T00:47:19.429Z,59.6
2018-03-08T00:57:18.648Z,59.5
2018-03-08T01:07:17.830Z,59.4
2018-03-08T01:17:17.082Z,59.4
2018-03-08T01:27:16.308Z,59.4
2018-03-08T01:37:15.509Z,59.3
2018-03-08T01:47:14.694Z,59.3
2018-03-08T01:57:13.867Z,59.3
2018-03-08T02:07:13.053Z,59.2
2018-03-08T02:17:12.276Z,59.1
2018-03-08T02:27:11.478Z,59.1
2018-03-08T02:37:10.665Z,59.1
2018-03-08T02:47:09.871Z,59.1
2018-03-08T02:57:09.069Z,59
2018-03-08T03:07:08.273Z,59
2018-03-08T03:17:07.496Z,59
2018-03-08T03:27:06.690Z,58.9
2018-03-08T03:37:05.888Z,58.9
2018-03-08T03:47:05.106Z,54.1
2018-03-08T03:57:04.290Z,54.6
2018-03-08T04:07:03.564Z,55.2
2018-03-08T04:17:02.717Z,55.3
2018-03-08T04:27:01.900Z,54.1
2018-03-08T04:37:01.104Z,53.1
2018-03-08T04:47:00.312Z,52.6
2018-03-08T04:56:59.519Z,51.6
2018-03-08T05:06:58.738Z,51.3
2018-03-08T05:16:57.929Z,51.3
2018-03-08T05:26:57.148Z,51.1
2018-03-08T05:36:56.339Z,51.1
2018-03-08T05:46:55.536Z,51.1
2018-03-08T05:56:54.739Z,51
2018-03-08T06:06:53.963Z,50.9
2018-03-08T06:16:53.155Z,50.9
2018-03-08T06:26:52.400Z,50.9
2018-03-08T06:36:51.559Z,50.9
2018-03-08T06:46:50.778Z,50.8
2018-03-08T06:56:49.982Z,50.8
2018-03-08T07:06:49.184Z,50.8
2018-03-08T07:16:48.386Z,50.8
2018-03-08T07:26:47.574Z,50.8
2018-03-08T07:36:46.772Z,50.8
2018-03-08T07:46:45.978Z,50.8
2018-03-08T07:56:45.178Z,50.8
2018-03-08T08:06:44.403Z,50.8
2018-03-08T08:16:43.585Z,50.6
2018-03-08T08:26:42.892Z,50.8
2018-03-08T08:36:41.991Z,50.8
2018-03-08T08:46:41.258Z,50.8
2018-03-08T08:56:40.423Z,50.9
2018-03-08T09:06:39.600Z,51
2018-03-08T09:16:38.855Z,51.2
2018-03-08T09:26:38.011Z,51.4
2018-03-08T09:36:37.220Z,51.8
2018-03-08T09:46:36.436Z,52.2
2018-03-08T09:56:35.615Z,52.6
2018-03-08T10:06:34.839Z,53.1
2018-03-08T10:16:34.023Z,53.6
2018-03-08T10:26:33.225Z,53.9
2018-03-08T10:36:32.449Z,54.3
2018-03-08T10:46:31.632Z,54.6
2018-03-08T10:56:30.833Z,54.9
2018-03-08T11:06:30.037Z,55.3
2018-03-08T11:16:29.240Z,55.4
2018-03-08T11:26:28.450Z,55.7
2018-03-08T11:36:27.645Z,55.8
2018-03-08T11:46:26.848Z,55.9
2018-03-08T11:56:26.064Z,55.9
2018-03-08T12:06:25.324Z,56
2018-03-08T12:16:24.482Z,56.1
2018-03-08T12:26:23.659Z,56.2
2018-03-08T12:36:22.932Z,56.3
2018-03-08T12:46:22.115Z,56.4
2018-03-08T12:56:21.275Z,56.4
2018-03-08T13:06:20.491Z,56.5
2018-03-08T13:16:19.722Z,56.5
2018-03-08T13:26:18.877Z,56.8
2018-03-08T13:36:18.077Z,57.1
2018-03-08T13:46:17.336Z,57.4
2018-03-08T13:56:16.511Z,57.6
2018-03-08T14:06:15.708Z,57.6
2018-03-08T14:16:14.889Z,57.5
2018-03-08T14:26:14.142Z,57.5
2018-03-08T14:36:13.292Z,57.4
2018-03-08T14:46:12.545Z,57.4
2018-03-08T14:56:11.703Z,57.4
2018-03-08T15:06:10.920Z,57.3
2018-03-08T15:16:10.173Z,57
2018-03-08T15:26:09.309Z,56.9
2018-03-08T15:36:08.532Z,56.4
2018-03-08T15:46:07.717Z,55.2
2018-03-08T15:56:06.941Z,54.5
2018-03-08T16:06:06.146Z,54.2
2018-03-08T16:16:05.332Z,53.9
2018-03-08T16:26:04.539Z,53.6
2018-03-08T16:36:03.812Z,53.3
2018-03-08T16:46:02.939Z,52.8
2018-03-08T16:56:02.149Z,52.7
2018-03-08T17:06:01.414Z,52.4
2018-03-08T17:16:00.649Z,52.3
2018-03-08T17:25:59.799Z,47.6
2018-03-08T17:35:59.001Z,43.4
2018-03-08T17:45:58.189Z,43.3
2018-03-08T17:55:57.425Z,43.8
2018-03-08T18:05:56.584Z,44.5
2018-03-08T18:15:55.783Z,44.6
2018-03-08T18:25:54.989Z,45.3
2018-03-08T18:35:54.214Z,45.9
2018-03-08T18:45:53.421Z,46.5
2018-03-08T18:55:52.610Z,46.9
2018-03-08T19:05:51.886Z,46.6
2018-03-08T19:15:51.011Z,45.1
2018-03-08T19:25:50.215Z,36.4
2018-03-08T19:35:49.421Z,36.8
2018-03-08T19:45:48.695Z,36.3
2018-03-08T19:55:47.899Z,37.7
2018-03-08T20:05:47.091Z,38.5
2018-03-08T20:15:46.239Z,38.8
2018-03-08T20:25:45.445Z,40
2018-03-08T20:35:44.720Z,40.7
2018-03-08T20:45:43.875Z,41.8
2018-03-08T20:55:43.110Z,42.8
2018-03-08T21:05:42.265Z,43.8
2018-03-08T21:15:41.503Z,44.7
2018-03-08T21:25:40.700Z,45.6
2018-03-08T21:35:39.938Z,46.5
2018-03-08T21:45:39.099Z,47.3
2018-03-08T21:55:38.299Z,48.2
2018-03-08T22:05:37.503Z,48.9
2018-03-08T22:15:36.777Z,49.8
2018-03-08T22:25:35.915Z,50.5
2018-03-08T22:35:35.166Z,51.1
2018-03-08T22:45:34.369Z,52.1
2018-03-08T22:55:33.544Z,52.8
2018-03-08T23:05:32.727Z,53.6
2018-03-08T23:15:31.955Z,54.3
2018-03-08T23:25:31.184Z,55.1
2018-03-08T23:35:30.339Z,55.8
2018-03-08T23:45:29.542Z,56.2
2018-03-08T23:55:28.819Z,57.1
